2026/08/24

Sensor Date Temp./Hum.
h3-hermonville 24-08-2026 - 23:59 19°C / 56.5%
h4-hermonville 24-08-2026 - 23:58 17.7°C / 59.5%
h2-hermonville 24-08-2026 - 23:53 18.9°C / 56.5%
h1-hermonville 24-08-2026 - 23:53 17.1°C / 62.5%
h3-hermonville 24-08-2026 - 23:49 19°C / 57%
h4-hermonville 24-08-2026 - 23:48 17.8°C / 59%
h2-hermonville 24-08-2026 - 23:43 19.2°C / 56%
h1-hermonville 24-08-2026 - 23:43 17.1°C / 62.5%
h3-hermonville 24-08-2026 - 23:39 19°C / 56.5%
h4-hermonville 24-08-2026 - 23:38 17.6°C / 59.5%
h2-hermonville 24-08-2026 - 23:33 19.7°C / 55%
h1-hermonville 24-08-2026 - 23:33 17.2°C / 62%
h3-hermonville 24-08-2026 - 23:29 19.2°C / 56%
h4-hermonville 24-08-2026 - 23:28 17.6°C / 60%
h2-hermonville 24-08-2026 - 23:23 19.6°C / 55%
h1-hermonville 24-08-2026 - 23:23 17.4°C / 61.5%
h3-hermonville 24-08-2026 - 23:19 19.3°C / 56%
h4-hermonville 24-08-2026 - 23:18 17.7°C / 59.5%
h2-hermonville 24-08-2026 - 23:13 19.8°C / 54.5%
h1-hermonville 24-08-2026 - 23:13 17.6°C / 61%
h3-hermonville 24-08-2026 - 23:09 19.4°C / 55.5%
h4-hermonville 24-08-2026 - 23:08 17.8°C / 59%
h2-hermonville 24-08-2026 - 23:03 19.9°C / 54.5%
h1-hermonville 24-08-2026 - 23:03 17.8°C / 60.5%
h3-hermonville 24-08-2026 - 22:59 19.4°C / 55.5%
h4-hermonville 24-08-2026 - 22:58 18°C / 59.5%
h2-hermonville 24-08-2026 - 22:53 19.9°C / 54.5%
h1-hermonville 24-08-2026 - 22:53 17.8°C / 61%
h3-hermonville 24-08-2026 - 22:49 19.4°C / 55.5%
h4-hermonville 24-08-2026 - 22:48 18°C / 59%
h2-hermonville 24-08-2026 - 22:43 20.1°C / 54.5%
h1-hermonville 24-08-2026 - 22:43 18°C / 60.5%
h4-hermonville 24-08-2026 - 22:38 18.1°C / 58.5%
h2-hermonville 24-08-2026 - 22:33 20.1°C / 54%
h1-hermonville 24-08-2026 - 22:33 18°C / 60.5%
h3-hermonville 24-08-2026 - 22:29 19.6°C / 55.5%
h4-hermonville 24-08-2026 - 22:28 18.2°C / 58.5%
h2-hermonville 24-08-2026 - 22:23 20.2°C / 54%
h1-hermonville 24-08-2026 - 22:23 18.4°C / 59.5%
h3-hermonville 24-08-2026 - 22:19 19.7°C / 55.5%
h4-hermonville 24-08-2026 - 22:18 18.3°C / 58.5%
h2-hermonville 24-08-2026 - 22:13 20.2°C / 54%
h1-hermonville 24-08-2026 - 22:13 18.2°C / 60%
h3-hermonville 24-08-2026 - 22:09 19.6°C / 55.5%
h4-hermonville 24-08-2026 - 22:08 18.5°C / 58.5%
h2-hermonville 24-08-2026 - 22:03 20.2°C / 54%
h1-hermonville 24-08-2026 - 22:03 18.3°C / 60%
h3-hermonville 24-08-2026 - 21:59 19.8°C / 55%
h4-hermonville 24-08-2026 - 21:58 18.6°C / 58%
h2-hermonville 24-08-2026 - 21:53 20.5°C / 53.5%
h1-hermonville 24-08-2026 - 21:53 18.5°C / 59.5%
h3-hermonville 24-08-2026 - 21:49 19.9°C / 54.5%
h4-hermonville 24-08-2026 - 21:48 18.7°C / 57.5%
h2-hermonville 24-08-2026 - 21:43 20.4°C / 53.5%
h1-hermonville 24-08-2026 - 21:43 18.8°C / 58.5%
h3-hermonville 24-08-2026 - 21:39 20°C / 54%
h4-hermonville 24-08-2026 - 21:38 18.8°C / 57%
h2-hermonville 24-08-2026 - 21:33 20.4°C / 53.5%
h1-hermonville 24-08-2026 - 21:33 18.8°C / 58%
h3-hermonville 24-08-2026 - 21:29 20.1°C / 54%
h4-hermonville 24-08-2026 - 21:28 19.1°C / 56.5%
h1-hermonville 24-08-2026 - 21:23 19.3°C / 57%
h3-hermonville 24-08-2026 - 21:19 20.2°C / 53.5%
h4-hermonville 24-08-2026 - 21:18 19.2°C / 55.5%
h2-hermonville 24-08-2026 - 21:13 20.7°C / 53%
h1-hermonville 24-08-2026 - 21:13 19.3°C / 56.5%
h3-hermonville 24-08-2026 - 21:09 20.3°C / 53%
h4-hermonville 24-08-2026 - 21:08 19.4°C / 55%
h1-hermonville 24-08-2026 - 21:03 19.6°C / 56%
h3-hermonville 24-08-2026 - 20:59 20.5°C / 53%
h2-hermonville 24-08-2026 - 20:53 20.8°C / 52%
h1-hermonville 24-08-2026 - 20:53 19.8°C / 55.5%
h3-hermonville 24-08-2026 - 20:49 20.6°C / 52.5%
h1-hermonville 24-08-2026 - 20:43 19.9°C / 55%
h1-hermonville 24-08-2026 - 20:33 20.2°C / 54%
h3-hermonville 24-08-2026 - 20:29 20.9°C / 51%
h4-hermonville 24-08-2026 - 20:28 20.5°C / 52%
h2-hermonville 24-08-2026 - 20:23 21.3°C / 50%
h1-hermonville 24-08-2026 - 20:23 20.6°C / 52%
h3-hermonville 24-08-2026 - 20:19 21.1°C / 50%
h2-hermonville 24-08-2026 - 20:13 21.5°C / 49.5%
h1-hermonville 24-08-2026 - 20:13 20.7°C / 51.5%
h3-hermonville 24-08-2026 - 20:09 21.3°C / 50%
h2-hermonville 24-08-2026 - 20:03 21.7°C / 49%
h1-hermonville 24-08-2026 - 20:03 20.8°C / 51.5%
h3-hermonville 24-08-2026 - 19:59 21.4°C / 49.5%
h2-hermonville 24-08-2026 - 19:53 21.8°C / 48.5%
h1-hermonville 24-08-2026 - 19:53 21.1°C / 50.5%
h3-hermonville 24-08-2026 - 19:49 21.6°C / 49%
h2-hermonville 24-08-2026 - 19:43 22°C / 48%
h1-hermonville 24-08-2026 - 19:43 21.4°C / 49.5%
h3-hermonville 24-08-2026 - 19:39 21.8°C / 48.5%
h2-hermonville 24-08-2026 - 19:33 22.1°C / 47.5%
h1-hermonville 24-08-2026 - 19:33 21.5°C / 49%
h3-hermonville 24-08-2026 - 19:29 21.9°C / 47.5%
h2-hermonville 24-08-2026 - 19:23 22.4°C / 46.5%
h3-hermonville 24-08-2026 - 19:19 22°C / 47%
h4-hermonville 24-08-2026 - 19:18 22°C / 46.5%
h2-hermonville 24-08-2026 - 19:13 22.8°C / 45.5%
h1-hermonville 24-08-2026 - 19:13 22°C / 47.5%
h3-hermonville 24-08-2026 - 19:09 22.2°C / 46.5%
h4-hermonville 24-08-2026 - 19:08 22.2°C / 45.5%
h2-hermonville 24-08-2026 - 19:03 23.5°C / 44%
h1-hermonville 24-08-2026 - 19:03 22.1°C / 47%
h3-hermonville 24-08-2026 - 18:59 22.4°C / 46.5%
h4-hermonville 24-08-2026 - 18:58 22.4°C / 45.5%
h2-hermonville 24-08-2026 - 18:53 23.6°C / 43.5%
h1-hermonville 24-08-2026 - 18:53 22.2°C / 46.5%
h3-hermonville 24-08-2026 - 18:49 22.4°C / 46%
h4-hermonville 24-08-2026 - 18:48 22.4°C / 45%
h2-hermonville 24-08-2026 - 18:43 23.3°C / 44.5%
h1-hermonville 24-08-2026 - 18:43 22.2°C / 47%
h3-hermonville 24-08-2026 - 18:39 22.4°C / 45.5%
h4-hermonville 24-08-2026 - 18:38 22.3°C / 45%
h2-hermonville 24-08-2026 - 18:33 23.1°C / 45%
h1-hermonville 24-08-2026 - 18:33 22.1°C / 47%
h3-hermonville 24-08-2026 - 18:29 22.3°C / 46%
h4-hermonville 24-08-2026 - 18:28 22.2°C / 45.5%
h2-hermonville 24-08-2026 - 18:23 22.8°C / 45%
h1-hermonville 24-08-2026 - 18:23 22°C / 46.5%
h3-hermonville 24-08-2026 - 18:19 22.5°C / 45%
h4-hermonville 24-08-2026 - 18:18 22.3°C / 45%
h2-hermonville 24-08-2026 - 18:13 23°C / 44.5%
h1-hermonville 24-08-2026 - 18:13 22.2°C / 46%
h3-hermonville 24-08-2026 - 18:09 22.5°C / 45%
h4-hermonville 24-08-2026 - 18:08 22.4°C / 44.5%
h2-hermonville 24-08-2026 - 18:03 23°C / 44.5%
h1-hermonville 24-08-2026 - 18:03 22.3°C / 46%
h3-hermonville 24-08-2026 - 17:59 22.5°C / 44.5%
h4-hermonville 24-08-2026 - 17:58 22.4°C / 44%
h2-hermonville 24-08-2026 - 17:53 23.3°C / 43.5%
h1-hermonville 24-08-2026 - 17:53 22.3°C / 46%
h3-hermonville 24-08-2026 - 17:49 22.6°C / 45%
h4-hermonville 24-08-2026 - 17:48 22.4°C / 44.5%
h2-hermonville 24-08-2026 - 17:43 23.1°C / 44%
h1-hermonville 24-08-2026 - 17:43 22.3°C / 45.5%
h3-hermonville 24-08-2026 - 17:39 22.6°C / 45%
h4-hermonville 24-08-2026 - 17:38 22.4°C / 44.5%
h2-hermonville 24-08-2026 - 17:33 23.2°C / 43.5%
h1-hermonville 24-08-2026 - 17:33 22.1°C / 45.5%
h3-hermonville 24-08-2026 - 17:29 22.7°C / 44.5%
h4-hermonville 24-08-2026 - 17:28 22.4°C / 44%
h2-hermonville 24-08-2026 - 17:23 23.7°C / 42.5%
h1-hermonville 24-08-2026 - 17:23 22.3°C / 45.5%
h3-hermonville 24-08-2026 - 17:19 22.7°C / 44%
h4-hermonville 24-08-2026 - 17:18 22.2°C / 44%
h2-hermonville 24-08-2026 - 17:13 23.5°C / 42.5%
h1-hermonville 24-08-2026 - 17:13 22.2°C / 45.5%
h3-hermonville 24-08-2026 - 17:09 22.7°C / 44%
h4-hermonville 24-08-2026 - 17:08 22.2°C / 44.5%
h2-hermonville 24-08-2026 - 17:03 23.4°C / 43.5%
h1-hermonville 24-08-2026 - 17:03 22.2°C / 46%
h3-hermonville 24-08-2026 - 16:59 22.5°C / 44.5%
h4-hermonville 24-08-2026 - 16:58 22.1°C / 45%
h2-hermonville 24-08-2026 - 16:53 23.3°C / 43%
h1-hermonville 24-08-2026 - 16:53 22.1°C / 45.5%
h3-hermonville 24-08-2026 - 16:49 22.6°C / 44%
h4-hermonville 24-08-2026 - 16:48 22.2°C / 44%
h2-hermonville 24-08-2026 - 16:43 23.5°C / 42.5%
h1-hermonville 24-08-2026 - 16:43 22.2°C / 45%
h3-hermonville 24-08-2026 - 16:39 22.8°C / 43.5%
h4-hermonville 24-08-2026 - 16:38 22.3°C / 44%
h2-hermonville 24-08-2026 - 16:33 23.5°C / 42.5%
h1-hermonville 24-08-2026 - 16:33 22.2°C / 45%
h3-hermonville 24-08-2026 - 16:29 23°C / 43.5%
h4-hermonville 24-08-2026 - 16:28 22.3°C / 44.5%
h2-hermonville 24-08-2026 - 16:23 23.3°C / 43%
h1-hermonville 24-08-2026 - 16:23 22°C / 45.5%
h3-hermonville 24-08-2026 - 16:19 22.8°C / 44%
h4-hermonville 24-08-2026 - 16:18 22°C / 44.5%
h2-hermonville 24-08-2026 - 16:13 22.6°C / 44%
h1-hermonville 24-08-2026 - 16:13 21.9°C / 45.5%
h3-hermonville 24-08-2026 - 16:09 22.9°C / 43%
h4-hermonville 24-08-2026 - 16:08 22.3°C / 43.5%
h2-hermonville 24-08-2026 - 16:03 22.2°C / 45%
h1-hermonville 24-08-2026 - 16:03 21.9°C / 46%
h3-hermonville 24-08-2026 - 15:59 22.8°C / 43.5%
h4-hermonville 24-08-2026 - 15:58 22.1°C / 44%
h2-hermonville 24-08-2026 - 15:53 22.3°C / 45%
h1-hermonville 24-08-2026 - 15:53 22°C / 45.5%
h3-hermonville 24-08-2026 - 15:49 22.9°C / 44%
h4-hermonville 24-08-2026 - 15:48 22.3°C / 44.5%
h1-hermonville 24-08-2026 - 15:43 22°C / 45.5%
h3-hermonville 24-08-2026 - 15:39 22.7°C / 44%
h4-hermonville 24-08-2026 - 15:38 22°C / 44.5%
h2-hermonville 24-08-2026 - 15:33 21.8°C / 46%
h1-hermonville 24-08-2026 - 15:33 21.8°C / 45.5%
h3-hermonville 24-08-2026 - 15:29 22.5°C / 44.5%
h4-hermonville 24-08-2026 - 15:28 21.7°C / 45.5%
h2-hermonville 24-08-2026 - 15:23 21.8°C / 46%
h1-hermonville 24-08-2026 - 15:23 21.5°C / 46%
h3-hermonville 24-08-2026 - 15:19 22.2°C / 45%
h4-hermonville 24-08-2026 - 15:18 21.5°C / 45%
h2-hermonville 24-08-2026 - 15:13 21.6°C / 46.5%
h1-hermonville 24-08-2026 - 15:13 21.4°C / 47%
h3-hermonville 24-08-2026 - 15:09 22.1°C / 45.5%
h4-hermonville 24-08-2026 - 15:08 21.6°C / 45.5%
h2-hermonville 24-08-2026 - 15:03 21.7°C / 47%
h1-hermonville 24-08-2026 - 15:03 21.4°C / 47.5%
h3-hermonville 24-08-2026 - 14:59 22.1°C / 45.5%
h2-hermonville 24-08-2026 - 14:53 21.4°C / 47.5%
h1-hermonville 24-08-2026 - 14:53 20.9°C / 48%
h3-hermonville 24-08-2026 - 14:49 22°C / 45%
h4-hermonville 24-08-2026 - 14:48 21.5°C / 46%
h2-hermonville 24-08-2026 - 14:43 21.1°C / 48%
h1-hermonville 24-08-2026 - 14:43 20.9°C / 48.5%
h3-hermonville 24-08-2026 - 14:39 22°C / 45.5%
h4-hermonville 24-08-2026 - 14:38 21.3°C / 46.5%
h2-hermonville 24-08-2026 - 14:33 21°C / 48%
h1-hermonville 24-08-2026 - 14:33 20.7°C / 48.5%
h3-hermonville 24-08-2026 - 14:29 21.6°C / 46.5%
h4-hermonville 24-08-2026 - 14:28 20.9°C / 47%
h2-hermonville 24-08-2026 - 14:23 20.6°C / 48.5%
h1-hermonville 24-08-2026 - 14:23 20.3°C / 49%
h4-hermonville 24-08-2026 - 14:18 20.7°C / 47%
h2-hermonville 24-08-2026 - 14:13 20.6°C / 48%
h1-hermonville 24-08-2026 - 14:13 20.3°C / 49%
h3-hermonville 24-08-2026 - 14:09 21.3°C / 47%
h4-hermonville 24-08-2026 - 14:08 20.7°C / 47%
h2-hermonville 24-08-2026 - 14:03 20.4°C / 49%
h1-hermonville 24-08-2026 - 14:03 20.1°C / 49.5%
h3-hermonville 24-08-2026 - 13:59 20.8°C / 47.5%
h4-hermonville 24-08-2026 - 13:58 20.2°C / 47.5%
h2-hermonville 24-08-2026 - 13:53 20.2°C / 49%
h1-hermonville 24-08-2026 - 13:53 19.9°C / 50%
h3-hermonville 24-08-2026 - 13:49 20.7°C / 47.5%
h4-hermonville 24-08-2026 - 13:48 20.4°C / 47.5%
h2-hermonville 24-08-2026 - 13:43 20.1°C / 49.5%
h1-hermonville 24-08-2026 - 13:43 19.7°C / 50.5%
h3-hermonville 24-08-2026 - 13:39 20.5°C / 47.5%
h4-hermonville 24-08-2026 - 13:38 20.1°C / 48%
h2-hermonville 24-08-2026 - 13:33 19.9°C / 50%
h1-hermonville 24-08-2026 - 13:33 19.7°C / 50%
h3-hermonville 24-08-2026 - 13:29 20.1°C / 49%
h4-hermonville 24-08-2026 - 13:28 19.8°C / 49%
h2-hermonville 24-08-2026 - 13:23 19.7°C / 50%
h1-hermonville 24-08-2026 - 13:23 19.4°C / 50.5%
h3-hermonville 24-08-2026 - 13:19 20°C / 49%
h4-hermonville 24-08-2026 - 13:18 19.7°C / 48.5%
h2-hermonville 24-08-2026 - 13:13 19.6°C / 51%
h1-hermonville 24-08-2026 - 13:13 19.4°C / 51%
h3-hermonville 24-08-2026 - 13:09 19.7°C / 49.5%
h4-hermonville 24-08-2026 - 13:08 19.4°C / 49%
h2-hermonville 24-08-2026 - 13:03 19.5°C / 50%
h3-hermonville 24-08-2026 - 12:59 19.5°C / 49.5%
h4-hermonville 24-08-2026 - 12:58 19.2°C / 49.5%
h2-hermonville 24-08-2026 - 12:53 19.3°C / 50.5%
h1-hermonville 24-08-2026 - 12:53 19°C / 51%
h3-hermonville 24-08-2026 - 12:49 19.4°C / 50%
h4-hermonville 24-08-2026 - 12:48 19°C / 50%
h2-hermonville 24-08-2026 - 12:43 19.2°C / 50.5%
h1-hermonville 24-08-2026 - 12:43 18.9°C / 51.5%
h3-hermonville 24-08-2026 - 12:39 19.2°C / 50%
h4-hermonville 24-08-2026 - 12:38 18.9°C / 50%
h2-hermonville 24-08-2026 - 12:33 19°C / 51%
h1-hermonville 24-08-2026 - 12:33 18.8°C / 51%
h3-hermonville 24-08-2026 - 12:29 19.1°C / 50%
h4-hermonville 24-08-2026 - 12:28 18.8°C / 50%
h2-hermonville 24-08-2026 - 12:23 19.1°C / 50.5%
h1-hermonville 24-08-2026 - 12:23 18.6°C / 52%
h3-hermonville 24-08-2026 - 12:19 19.1°C / 50.5%
h4-hermonville 24-08-2026 - 12:18 18.8°C / 50%
h2-hermonville 24-08-2026 - 12:13 18.9°C / 51%
h3-hermonville 24-08-2026 - 12:09 19°C / 50.5%
h4-hermonville 24-08-2026 - 12:08 18.8°C / 50%
h2-hermonville 24-08-2026 - 12:03 18.8°C / 51.5%
h1-hermonville 24-08-2026 - 12:03 18.4°C / 52.5%
h3-hermonville 24-08-2026 - 11:59 19°C / 51.5%
h4-hermonville 24-08-2026 - 11:58 18.5°C / 51%
h2-hermonville 24-08-2026 - 11:53 18.4°C / 52.5%
h1-hermonville 24-08-2026 - 11:53 18.1°C / 53.5%
h3-hermonville 24-08-2026 - 11:49 18.7°C / 51.5%
h4-hermonville 24-08-2026 - 11:48 18.2°C / 52%
h1-hermonville 24-08-2026 - 11:43 17.8°C / 55%
h3-hermonville 24-08-2026 - 11:39 18.5°C / 52%
h4-hermonville 24-08-2026 - 11:38 17.9°C / 53%
h2-hermonville 24-08-2026 - 11:33 18.2°C / 53.5%
h1-hermonville 24-08-2026 - 11:33 17.7°C / 55%
h3-hermonville 24-08-2026 - 11:29 18.3°C / 52.5%
h4-hermonville 24-08-2026 - 11:28 17.6°C / 53.5%
h2-hermonville 24-08-2026 - 11:23 18.1°C / 53.5%
h1-hermonville 24-08-2026 - 11:23 17.4°C / 55.5%
h3-hermonville 24-08-2026 - 11:19 18.2°C / 53%
h4-hermonville 24-08-2026 - 11:18 17.5°C / 53.5%
h2-hermonville 24-08-2026 - 11:13 18°C / 53.5%
h1-hermonville 24-08-2026 - 11:13 17.3°C / 55.5%
h3-hermonville 24-08-2026 - 11:09 18.2°C / 53%
h4-hermonville 24-08-2026 - 11:08 17.4°C / 53.5%
h2-hermonville 24-08-2026 - 11:03 17.9°C / 53%
h1-hermonville 24-08-2026 - 11:03 17.3°C / 55.5%
h3-hermonville 24-08-2026 - 10:59 18.1°C / 53%
h4-hermonville 24-08-2026 - 10:58 17.4°C / 53.5%
h2-hermonville 24-08-2026 - 10:53 17.9°C / 53%
h1-hermonville 24-08-2026 - 10:53 17.2°C / 55%
h3-hermonville 24-08-2026 - 10:49 18°C / 52.5%
h4-hermonville 24-08-2026 - 10:48 17.5°C / 52.5%
h2-hermonville 24-08-2026 - 10:43 18°C / 53%
h1-hermonville 24-08-2026 - 10:43 17.3°C / 55.5%
h3-hermonville 24-08-2026 - 10:39 18.1°C / 53%
h4-hermonville 24-08-2026 - 10:38 17.9°C / 52%
h2-hermonville 24-08-2026 - 10:33 18.1°C / 52.5%
h1-hermonville 24-08-2026 - 10:33 17.2°C / 55%
h3-hermonville 24-08-2026 - 10:29 18.1°C / 53%
h4-hermonville 24-08-2026 - 10:28 18.3°C / 50.5%
h2-hermonville 24-08-2026 - 10:23 18°C / 53%
h1-hermonville 24-08-2026 - 10:23 17.3°C / 55.5%
h3-hermonville 24-08-2026 - 10:19 18.1°C / 52.5%
h4-hermonville 24-08-2026 - 10:18 19.3°C / 47.5%
h2-hermonville 24-08-2026 - 10:13 18°C / 53%
h1-hermonville 24-08-2026 - 10:13 17.4°C / 55.5%
h3-hermonville 24-08-2026 - 10:09 18.1°C / 54%
h2-hermonville 24-08-2026 - 10:03 17.7°C / 54%
h1-hermonville 24-08-2026 - 10:03 16.7°C / 57.5%
h3-hermonville 24-08-2026 - 09:59 17.8°C / 55%
h4-hermonville 24-08-2026 - 09:58 19.8°C / 48%
h2-hermonville 24-08-2026 - 09:53 17.5°C / 56%
h1-hermonville 24-08-2026 - 09:53 16.4°C / 59.5%
h3-hermonville 24-08-2026 - 09:49 17.4°C / 57.5%
h4-hermonville 24-08-2026 - 09:48 20.3°C / 49%
h2-hermonville 24-08-2026 - 09:43 17°C / 59%
h1-hermonville 24-08-2026 - 09:43 15.6°C / 63.5%
h3-hermonville 24-08-2026 - 09:39 16.9°C / 60%
h4-hermonville 24-08-2026 - 09:38 17.8°C / 57%
h2-hermonville 24-08-2026 - 09:33 16.7°C / 60.5%
h1-hermonville 24-08-2026 - 09:33 15°C / 66.5%
h3-hermonville 24-08-2026 - 09:29 16.6°C / 60%
h4-hermonville 24-08-2026 - 09:28 15.7°C / 62.5%
h2-hermonville 24-08-2026 - 09:23 16.8°C / 60%
h1-hermonville 24-08-2026 - 09:23 14.6°C / 67%
h3-hermonville 24-08-2026 - 09:19 16.5°C / 60.5%
h4-hermonville 24-08-2026 - 09:18 15.2°C / 63%
h2-hermonville 24-08-2026 - 09:13 16.6°C / 60.5%
h1-hermonville 24-08-2026 - 09:13 14.2°C / 68.5%
h3-hermonville 24-08-2026 - 09:09 16.3°C / 61.5%
h4-hermonville 24-08-2026 - 09:08 14.9°C / 64.5%
h2-hermonville 24-08-2026 - 09:03 16.3°C / 62%
h1-hermonville 24-08-2026 - 09:03 13.9°C / 70%
h3-hermonville 24-08-2026 - 08:59 16°C / 61.5%
h4-hermonville 24-08-2026 - 08:58 14.6°C / 64%
h2-hermonville 24-08-2026 - 08:53 15.6°C / 63.5%
h1-hermonville 24-08-2026 - 08:53 13.6°C / 70%
h3-hermonville 24-08-2026 - 08:49 15.6°C / 62.5%
h4-hermonville 24-08-2026 - 08:48 15.1°C / 62%
h2-hermonville 24-08-2026 - 08:43 14.9°C / 65%
h1-hermonville 24-08-2026 - 08:43 13.4°C / 71%
h3-hermonville 24-08-2026 - 08:39 15.3°C / 63.5%
h4-hermonville 24-08-2026 - 08:38 15.4°C / 61.5%
h2-hermonville 24-08-2026 - 08:33 14.7°C / 65%
h1-hermonville 24-08-2026 - 08:33 13.2°C / 71.5%
h3-hermonville 24-08-2026 - 08:29 15.1°C / 63%
h2-hermonville 24-08-2026 - 08:23 14.7°C / 65%
h1-hermonville 24-08-2026 - 08:23 13.1°C / 71.5%
h3-hermonville 24-08-2026 - 08:19 15°C / 63.5%
h4-hermonville 24-08-2026 - 08:18 15.3°C / 61%
h2-hermonville 24-08-2026 - 08:13 14.6°C / 65%
h1-hermonville 24-08-2026 - 08:13 12.9°C / 71.5%
h3-hermonville 24-08-2026 - 08:09 15.1°C / 63.5%
h4-hermonville 24-08-2026 - 08:08 15.4°C / 60.5%
h2-hermonville 24-08-2026 - 08:03 14.6°C / 65%
h1-hermonville 24-08-2026 - 08:03 12.8°C / 71.5%
h3-hermonville 24-08-2026 - 07:59 15°C / 63.5%
h4-hermonville 24-08-2026 - 07:58 15.2°C / 61.5%
h2-hermonville 24-08-2026 - 07:53 14.6°C / 65%
h1-hermonville 24-08-2026 - 07:53 12.7°C / 72%
h3-hermonville 24-08-2026 - 07:49 14.8°C / 63.5%
h4-hermonville 24-08-2026 - 07:48 15.2°C / 61%
h2-hermonville 24-08-2026 - 07:43 14.4°C / 65%
h1-hermonville 24-08-2026 - 07:43 12.7°C / 71.5%
h3-hermonville 24-08-2026 - 07:39 14.6°C / 63.5%
h4-hermonville 24-08-2026 - 07:38 15.1°C / 61.5%
h2-hermonville 24-08-2026 - 07:33 14.3°C / 65.5%
h3-hermonville 24-08-2026 - 07:29 15.2°C / 61.5%
h4-hermonville 24-08-2026 - 07:28 14.6°C / 63%
h2-hermonville 24-08-2026 - 07:23 14.3°C / 65.5%
h1-hermonville 24-08-2026 - 07:23 12.4°C / 72.5%
h3-hermonville 24-08-2026 - 07:19 15.2°C / 62%
h4-hermonville 24-08-2026 - 07:18 14.6°C / 62.5%
h2-hermonville 24-08-2026 - 07:13 14.3°C / 65%
h1-hermonville 24-08-2026 - 07:13 12.5°C / 72%
h3-hermonville 24-08-2026 - 07:09 15.2°C / 61.5%
h4-hermonville 24-08-2026 - 07:08 14.6°C / 62.5%
h2-hermonville 24-08-2026 - 07:03 14.6°C / 64%
h1-hermonville 24-08-2026 - 07:03 12.5°C / 71.5%
h3-hermonville 24-08-2026 - 06:59 15.3°C / 62%
h4-hermonville 24-08-2026 - 06:58 14.7°C / 61.5%
h2-hermonville 24-08-2026 - 06:53 14.3°C / 65%
h1-hermonville 24-08-2026 - 06:53 12.6°C / 71.5%
h3-hermonville 24-08-2026 - 06:49 15°C / 62.5%
h4-hermonville 24-08-2026 - 06:48 15.3°C / 59.5%
h2-hermonville 24-08-2026 - 06:43 14.5°C / 64.5%
h1-hermonville 24-08-2026 - 06:43 12.6°C / 71%
h3-hermonville 24-08-2026 - 06:39 14.6°C / 63.5%
h4-hermonville 24-08-2026 - 06:38 15.5°C / 59%
h2-hermonville 24-08-2026 - 06:33 14.5°C / 64%
h1-hermonville 24-08-2026 - 06:33 12.7°C / 71%
h3-hermonville 24-08-2026 - 06:29 14.8°C / 63%
h2-hermonville 24-08-2026 - 06:23 14.4°C / 64.5%
h1-hermonville 24-08-2026 - 06:23 12.5°C / 71.5%
h3-hermonville 24-08-2026 - 06:19 14.5°C / 63.5%
h4-hermonville 24-08-2026 - 06:18 15.4°C / 60%
h2-hermonville 24-08-2026 - 06:13 14.3°C / 65%
h1-hermonville 24-08-2026 - 06:13 12.4°C / 72%
h3-hermonville 24-08-2026 - 06:09 14.8°C / 63.5%
h4-hermonville 24-08-2026 - 06:08 15.4°C / 59.5%
h2-hermonville 24-08-2026 - 06:03 14.5°C / 64.5%
h1-hermonville 24-08-2026 - 06:03 12.5°C / 71.5%
h3-hermonville 24-08-2026 - 05:59 14.5°C / 63.5%
h4-hermonville 24-08-2026 - 05:58 15.5°C / 60%
h2-hermonville 24-08-2026 - 05:53 14.3°C / 64.5%
h3-hermonville 24-08-2026 - 05:49 14.7°C / 63%
h4-hermonville 24-08-2026 - 05:48 15.3°C / 60.5%
h2-hermonville 24-08-2026 - 05:43 14.4°C / 64.5%
h1-hermonville 24-08-2026 - 05:43 12.5°C / 71.5%
h3-hermonville 24-08-2026 - 05:39 15.1°C / 62%
h4-hermonville 24-08-2026 - 05:38 14.9°C / 61.5%
h2-hermonville 24-08-2026 - 05:33 14.5°C / 64.5%
h1-hermonville 24-08-2026 - 05:33 12.4°C / 71.5%
h3-hermonville 24-08-2026 - 05:29 15°C / 62.5%
h4-hermonville 24-08-2026 - 05:28 15.2°C / 60%
h2-hermonville 24-08-2026 - 05:23 14.3°C / 65%
h1-hermonville 24-08-2026 - 05:23 12.5°C / 71.5%
h3-hermonville 24-08-2026 - 05:19 14.9°C / 63%
h4-hermonville 24-08-2026 - 05:18 15.2°C / 60%
h2-hermonville 24-08-2026 - 05:13 14.4°C / 64.5%
h1-hermonville 24-08-2026 - 05:13 12.6°C / 71.5%
h3-hermonville 24-08-2026 - 05:09 14.7°C / 63.5%
h4-hermonville 24-08-2026 - 05:08 15.1°C / 60.5%
h1-hermonville 24-08-2026 - 05:03 12.7°C / 70.5%
h4-hermonville 24-08-2026 - 04:58 15°C / 61.5%
h2-hermonville 24-08-2026 - 04:53 14.3°C / 65.5%
h1-hermonville 24-08-2026 - 04:53 12.6°C / 71.5%
h2-hermonville 24-08-2026 - 04:43 14.4°C / 64.5%
h1-hermonville 24-08-2026 - 04:43 12.5°C / 72%
h3-hermonville 24-08-2026 - 04:39 14.3°C / 64.5%
h4-hermonville 24-08-2026 - 04:38 16°C / 57.5%
h2-hermonville 24-08-2026 - 04:33 14.5°C / 64%
h1-hermonville 24-08-2026 - 04:33 12.5°C / 71.5%
h3-hermonville 24-08-2026 - 04:29 14.4°C / 64.5%
h4-hermonville 24-08-2026 - 04:28 16°C / 58.5%
h2-hermonville 24-08-2026 - 04:23 14.6°C / 64%
h1-hermonville 24-08-2026 - 04:23 12.5°C / 71%
h3-hermonville 24-08-2026 - 04:19 14.4°C / 64%
h4-hermonville 24-08-2026 - 04:18 16°C / 58.5%
h2-hermonville 24-08-2026 - 04:13 14.7°C / 63.5%
h1-hermonville 24-08-2026 - 04:13 12.7°C / 71%
h3-hermonville 24-08-2026 - 04:09 14.5°C / 64%
h4-hermonville 24-08-2026 - 04:08 16°C / 58.5%
h2-hermonville 24-08-2026 - 04:03 14.8°C / 64%
h3-hermonville 24-08-2026 - 03:59 14.7°C / 64%
h4-hermonville 24-08-2026 - 03:58 15.7°C / 59.5%
h2-hermonville 24-08-2026 - 03:53 14.7°C / 64.5%
h1-hermonville 24-08-2026 - 03:53 12.9°C / 70%
h3-hermonville 24-08-2026 - 03:49 14.9°C / 63%
h4-hermonville 24-08-2026 - 03:48 15.7°C / 59%
h2-hermonville 24-08-2026 - 03:43 14.8°C / 63.5%
h1-hermonville 24-08-2026 - 03:43 12.9°C / 70%
h3-hermonville 24-08-2026 - 03:39 15.2°C / 62%
h4-hermonville 24-08-2026 - 03:38 15.6°C / 59%
h2-hermonville 24-08-2026 - 03:33 14.8°C / 63%
h1-hermonville 24-08-2026 - 03:33 13.1°C / 69%
h3-hermonville 24-08-2026 - 03:29 14.8°C / 63%
h4-hermonville 24-08-2026 - 03:28 16.2°C / 58.5%
h2-hermonville 24-08-2026 - 03:23 14.9°C / 63.5%
h3-hermonville 24-08-2026 - 03:19 15°C / 63%
h4-hermonville 24-08-2026 - 03:18 15.7°C / 59.5%
h2-hermonville 24-08-2026 - 03:13 14.9°C / 63.5%
h1-hermonville 24-08-2026 - 03:13 13.3°C / 69%
h3-hermonville 24-08-2026 - 03:09 15°C / 63%
h4-hermonville 24-08-2026 - 03:08 15.9°C / 58%
h2-hermonville 24-08-2026 - 03:03 15.1°C / 63%
h1-hermonville 24-08-2026 - 03:03 13.4°C / 68.5%
h3-hermonville 24-08-2026 - 02:59 15.2°C / 62%
h4-hermonville 24-08-2026 - 02:58 16.2°C / 57.5%
h2-hermonville 24-08-2026 - 02:53 15.2°C / 62%
h1-hermonville 24-08-2026 - 02:53 13.3°C / 68.5%
h3-hermonville 24-08-2026 - 02:49 15.3°C / 61.5%
h4-hermonville 24-08-2026 - 02:48 16.3°C / 57.5%
h2-hermonville 24-08-2026 - 02:43 15°C / 63%
h1-hermonville 24-08-2026 - 02:43 13.3°C / 68%
h3-hermonville 24-08-2026 - 02:39 15.3°C / 61.5%
h4-hermonville 24-08-2026 - 02:38 16.4°C / 57%
h2-hermonville 24-08-2026 - 02:33 15.2°C / 63.5%
h1-hermonville 24-08-2026 - 02:33 13.6°C / 67.5%
h3-hermonville 24-08-2026 - 02:29 15.3°C / 62%
h4-hermonville 24-08-2026 - 02:28 16.2°C / 57.5%
h2-hermonville 24-08-2026 - 02:23 15.1°C / 63%
h1-hermonville 24-08-2026 - 02:23 13.5°C / 67.5%
h3-hermonville 24-08-2026 - 02:19 15.6°C / 60.5%
h4-hermonville 24-08-2026 - 02:18 15.7°C / 59.5%
h2-hermonville 24-08-2026 - 02:13 15.1°C / 62.5%
h1-hermonville 24-08-2026 - 02:13 13.8°C / 68%
h3-hermonville 24-08-2026 - 02:09 15.5°C / 61.5%
h4-hermonville 24-08-2026 - 02:08 16°C / 58.5%
h2-hermonville 24-08-2026 - 02:03 15.7°C / 61%
h1-hermonville 24-08-2026 - 02:03 13.9°C / 67%
h3-hermonville 24-08-2026 - 01:59 15.9°C / 60%
h4-hermonville 24-08-2026 - 01:58 16.2°C / 57%
h2-hermonville 24-08-2026 - 01:53 16°C / 60%
h1-hermonville 24-08-2026 - 01:53 14°C / 66%
h3-hermonville 24-08-2026 - 01:49 16°C / 58.5%
h4-hermonville 24-08-2026 - 01:48 16.6°C / 56%
h1-hermonville 24-08-2026 - 01:43 14.2°C / 65.5%
h3-hermonville 24-08-2026 - 01:39 16.6°C / 57.5%
h2-hermonville 24-08-2026 - 01:33 16.4°C / 58.5%
h1-hermonville 24-08-2026 - 01:33 14.4°C / 65%
h3-hermonville 24-08-2026 - 01:29 16.5°C / 58%
h4-hermonville 24-08-2026 - 01:28 16.7°C / 56%
h2-hermonville 24-08-2026 - 01:23 16.5°C / 57.5%
h1-hermonville 24-08-2026 - 01:23 14.4°C / 64.5%
h3-hermonville 24-08-2026 - 01:19 16.7°C / 56%
h4-hermonville 24-08-2026 - 01:18 16.5°C / 56%
h2-hermonville 24-08-2026 - 01:13 16.7°C / 57%
h1-hermonville 24-08-2026 - 01:13 14.5°C / 64%
h3-hermonville 24-08-2026 - 01:09 17.3°C / 55.5%
h4-hermonville 24-08-2026 - 01:08 16.6°C / 55%
h2-hermonville 24-08-2026 - 01:03 16.9°C / 56.5%
h1-hermonville 24-08-2026 - 01:03 14.7°C / 63%
h3-hermonville 24-08-2026 - 00:59 17.1°C / 55.5%
h2-hermonville 24-08-2026 - 00:53 16.8°C / 56.5%
h1-hermonville 24-08-2026 - 00:53 14.8°C / 62.5%
h3-hermonville 24-08-2026 - 00:49 16.8°C / 56%
h4-hermonville 24-08-2026 - 00:48 17.6°C / 53%
h2-hermonville 24-08-2026 - 00:43 16.7°C / 56%
h1-hermonville 24-08-2026 - 00:43 14.9°C / 62.5%
h3-hermonville 24-08-2026 - 00:39 17°C / 56%
h2-hermonville 24-08-2026 - 00:33 17.2°C / 55%
h1-hermonville 24-08-2026 - 00:33 15°C / 62%
h4-hermonville 24-08-2026 - 00:28 18.2°C / 52%
h2-hermonville 24-08-2026 - 00:23 17.4°C / 54.5%
h1-hermonville 24-08-2026 - 00:23 15.2°C / 61.5%
h2-hermonville 24-08-2026 - 00:13 17.7°C / 53.5%
h1-hermonville 24-08-2026 - 00:13 15.3°C / 61%
h4-hermonville 24-08-2026 - 00:08 18.3°C / 52%
h2-hermonville 24-08-2026 - 00:03 17.7°C / 54%
h1-hermonville 24-08-2026 - 00:03 15.3°C / 61%